sensor_id;sensor_type;location;lat;lon;timestamp;pressure;altitude;pressure_sealevel;temperature;humidity
15646;BME280;7922;43.622;1.476;2023-04-06T00:00:13;100474.91;;;6.40;71.69
15646;BME280;7922;43.622;1.476;2023-04-06T00:02:39;100409.00;;;5.95;72.67
15646;BME280;7922;43.622;1.476;2023-04-06T00:05:04;100264.97;;;5.11;73.06
15646;BME280;7922;43.622;1.476;2023-04-06T00:07:30;100456.81;;;6.20;72.40
15646;BME280;7922;43.622;1.476;2023-04-06T00:09:55;100383.81;;;5.82;72.62
15646;BME280;7922;43.622;1.476;2023-04-06T00:12:20;100203.41;;;4.74;72.78
15646;BME280;7922;43.622;1.476;2023-04-06T00:14:45;100411.59;;;5.98;72.60
15646;BME280;7922;43.622;1.476;2023-04-06T00:17:11;100430.03;;;5.97;73.01
15646;BME280;7922;43.622;1.476;2023-04-06T00:19:36;100363.25;;;5.53;73.31
15646;BME280;7922;43.622;1.476;2023-04-06T00:22:01;100187.94;;;4.57;72.97
15646;BME280;7922;43.622;1.476;2023-04-06T00:24:27;100288.56;;;5.14;74.53
15646;BME280;7922;43.622;1.476;2023-04-06T00:26:52;100386.59;;;5.70;74.38
15646;BME280;7922;43.622;1.476;2023-04-06T00:29:17;100415.31;;;5.85;74.18
15646;BME280;7922;43.622;1.476;2023-04-06T00:31:43;100364.88;;;5.60;74.45
15646;BME280;7922;43.622;1.476;2023-04-06T00:34:09;100452.53;;;6.15;75.13
15646;BME280;7922;43.622;1.476;2023-04-06T00:36:34;100216.53;;;4.76;73.83
15646;BME280;7922;43.622;1.476;2023-04-06T00:39:00;100224.28;;;4.82;73.62
15646;BME280;7922;43.622;1.476;2023-04-06T00:41:25;100370.16;;;5.59;74.26
15646;BME280;7922;43.622;1.476;2023-04-06T00:43:50;100262.59;;;4.95;74.46
15646;BME280;7922;43.622;1.476;2023-04-06T00:46:16;100259.34;;;4.78;74.93
15646;BME280;7922;43.622;1.476;2023-04-06T00:48:41;100399.91;;;5.59;75.41
15646;BME280;7922;43.622;1.476;2023-04-06T00:51:06;100350.53;;;5.25;76.11
15646;BME280;7922;43.622;1.476;2023-04-06T00:53:32;100426.09;;;5.67;76.27
15646;BME280;7922;43.622;1.476;2023-04-06T00:55:57;100401.97;;;5.40;76.65
15646;BME280;7922;43.622;1.476;2023-04-06T00:58:23;100236.19;;;4.44;76.33
15646;BME280;7922;43.622;1.476;2023-04-06T01:00:49;100349.00;;;5.11;77.00
15646;BME280;7922;43.622;1.476;2023-04-06T01:03:14;100251.91;;;4.46;77.23
15646;BME280;7922;43.622;1.476;2023-04-06T01:05:39;100328.28;;;4.91;77.30
15646;BME280;7922;43.622;1.476;2023-04-06T01:08:05;100225.16;;;4.19;77.10
15646;BME280;7922;43.622;1.476;2023-04-06T01:10:30;100368.41;;;4.97;77.72
15646;BME280;7922;43.622;1.476;2023-04-06T01:12:55;100418.06;;;5.17;77.73
15646;BME280;7922;43.622;1.476;2023-04-06T01:15:21;100258.19;;;4.34;78.11
15646;BME280;7922;43.622;1.476;2023-04-06T01:17:46;99964.22;;;2.64;77.50
15646;BME280;7922;43.622;1.476;2023-04-06T01:20:12;100384.19;;;4.96;77.65
15646;BME280;7922;43.622;1.476;2023-04-06T01:22:38;100257.41;;;4.24;78.39
15646;BME280;7922;43.622;1.476;2023-04-06T01:25:03;100399.19;;;4.86;77.73
15646;BME280;7922;43.622;1.476;2023-04-06T01:27:28;100369.59;;;4.75;78.03
15646;BME280;7922;43.622;1.476;2023-04-06T01:29:54;100372.06;;;4.87;77.95
15646;BME280;7922;43.622;1.476;2023-04-06T01:32:19;100326.06;;;4.58;77.57
15646;BME280;7922;43.622;1.476;2023-04-06T01:34:44;100452.91;;;5.28;77.60
15646;BME280;7922;43.622;1.476;2023-04-06T01:37:10;100431.25;;;5.11;77.72
15646;BME280;7922;43.622;1.476;2023-04-06T01:39:35;100370.53;;;4.69;77.78
15646;BME280;7922;43.622;1.476;2023-04-06T01:42:00;100397.47;;;4.85;77.71
15646;BME280;7922;43.622;1.476;2023-04-06T01:44:26;100325.28;;;4.52;77.19
15646;BME280;7922;43.622;1.476;2023-04-06T01:46:51;100360.84;;;4.74;77.78
15646;BME280;7922;43.622;1.476;2023-04-06T01:49:16;100435.56;;;5.15;77.68
15646;BME280;7922;43.622;1.476;2023-04-06T01:51:42;100370.38;;;4.81;76.96
15646;BME280;7922;43.622;1.476;2023-04-06T01:54:07;100367.09;;;4.64;77.71
15646;BME280;7922;43.622;1.476;2023-04-06T01:56:32;100324.50;;;4.44;77.49
15646;BME280;7922;43.622;1.476;2023-04-06T01:58:57;100365.22;;;4.74;77.43
15646;BME280;7922;43.622;1.476;2023-04-06T02:01:23;100381.75;;;4.83;77.31
15646;BME280;7922;43.622;1.476;2023-04-06T02:03:48;100312.31;;;4.38;77.09
15646;BME280;7922;43.622;1.476;2023-04-06T02:06:13;100328.81;;;4.48;77.10
15646;BME280;7922;43.622;1.476;2023-04-06T02:08:39;100366.22;;;4.64;77.05
15646;BME280;7922;43.622;1.476;2023-04-06T02:11:04;100141.50;;;3.27;77.83
15646;BME280;7922;43.622;1.476;2023-04-06T02:13:29;100342.84;;;4.45;78.16
15646;BME280;7922;43.622;1.476;2023-04-06T02:15:55;100381.91;;;4.70;78.14
15646;BME280;7922;43.622;1.476;2023-04-06T02:18:20;100365.41;;;4.60;77.62
15646;BME280;7922;43.622;1.476;2023-04-06T02:20:46;100280.31;;;4.10;78.28
15646;BME280;7922;43.622;1.476;2023-04-06T02:23:11;100172.78;;;3.42;78.16
15646;BME280;7922;43.622;1.476;2023-04-06T02:25:37;100382.84;;;4.66;78.21
15646;BME280;7922;43.622;1.476;2023-04-06T02:28:02;100184.88;;;3.51;78.11
15646;BME280;7922;43.622;1.476;2023-04-06T02:30:27;100414.03;;;4.90;78.29
15646;BME280;7922;43.622;1.476;2023-04-06T02:32:53;100334.19;;;4.35;78.43
15646;BME280;7922;43.622;1.476;2023-04-06T02:35:18;100201.28;;;3.67;78.18
15646;BME280;7922;43.622;1.476;2023-04-06T02:37:43;100335.03;;;4.41;78.01
15646;BME280;7922;43.622;1.476;2023-04-06T02:40:09;100224.81;;;3.73;78.81
15646;BME280;7922;43.622;1.476;2023-04-06T02:42:35;100419.38;;;4.81;79.58
15646;BME280;7922;43.622;1.476;2023-04-06T02:45:00;100413.31;;;4.77;79.73
15646;BME280;7922;43.622;1.476;2023-04-06T02:47:25;100413.34;;;4.76;79.64
15646;BME280;7922;43.622;1.476;2023-04-06T02:49:50;100170.22;;;3.33;79.61
15646;BME280;7922;43.622;1.476;2023-04-06T02:52:16;100422.06;;;4.75;79.43
15646;BME280;7922;43.622;1.476;2023-04-06T02:54:41;100210.22;;;3.50;78.92
15646;BME280;7922;43.622;1.476;2023-04-06T02:57:07;100340.47;;;4.24;79.95
15646;BME280;7922;43.622;1.476;2023-04-06T02:59:32;100346.47;;;4.32;79.28
15646;BME280;7922;43.622;1.476;2023-04-06T03:01:58;100327.38;;;4.21;78.74
15646;BME280;7922;43.622;1.476;2023-04-06T03:04:23;100175.38;;;3.42;79.08
15646;BME280;7922;43.622;1.476;2023-04-06T03:06:48;100259.63;;;3.85;78.46
15646;BME280;7922;43.622;1.476;2023-04-06T03:09:14;100174.53;;;3.40;79.08
15646;BME280;7922;43.622;1.476;2023-04-06T03:11:39;100322.06;;;4.27;79.11
15646;BME280;7922;43.622;1.476;2023-04-06T03:14:04;100351.66;;;4.38;78.69
15646;BME280;7922;43.622;1.476;2023-04-06T03:16:30;100417.69;;;4.75;78.59
15646;BME280;7922;43.622;1.476;2023-04-06T03:18:55;100231.81;;;3.72;78.90
15646;BME280;7922;43.622;1.476;2023-04-06T03:21:20;100199.66;;;3.59;78.33
15646;BME280;7922;43.622;1.476;2023-04-06T03:23:46;100406.22;;;4.82;78.57
15646;BME280;7922;43.622;1.476;2023-04-06T03:26:11;100175.28;;;3.53;78.30
15646;BME280;7922;43.622;1.476;2023-04-06T03:28:36;100276.81;;;4.09;78.49
15646;BME280;7922;43.622;1.476;2023-04-06T03:31:01;100342.78;;;4.51;78.62
15646;BME280;7922;43.622;1.476;2023-04-06T03:33:27;100404.31;;;4.97;78.29
15646;BME280;7922;43.622;1.476;2023-04-06T03:35:53;100380.00;;;4.81;78.50
15646;BME280;7922;43.622;1.476;2023-04-06T03:38:18;100372.19;;;4.78;78.07
15646;BME280;7922;43.622;1.476;2023-04-06T03:40:44;100184.63;;;3.75;78.27
15646;BME280;7922;43.622;1.476;2023-04-06T03:43:09;100247.16;;;4.06;77.87
15646;BME280;7922;43.622;1.476;2023-04-06T03:45:34;100316.47;;;4.56;77.49
15646;BME280;7922;43.622;1.476;2023-04-06T03:48:00;100253.13;;;4.17;77.25
15646;BME280;7922;43.622;1.476;2023-04-06T03:50:25;100334.69;;;4.68;76.67
15646;BME280;7922;43.622;1.476;2023-04-06T03:52:50;100204.50;;;3.92;76.77
15646;BME280;7922;43.622;1.476;2023-04-06T03:55:16;100350.19;;;4.88;76.66
15646;BME280;7922;43.622;1.476;2023-04-06T03:57:41;100354.53;;;4.89;76.93
15646;BME280;7922;43.622;1.476;2023-04-06T04:00:07;100207.94;;;4.00;76.51
15646;BME280;7922;43.622;1.476;2023-04-06T04:02:32;100171.41;;;3.86;76.71
15646;BME280;7922;43.622;1.476;2023-04-06T04:04:58;100297.06;;;4.69;76.25
15646;BME280;7922;43.622;1.476;2023-04-06T04:07:23;100405.56;;;5.33;75.57
15646;BME280;7922;43.622;1.476;2023-04-06T04:09:48;100311.81;;;4.78;75.63
15646;BME280;7922;43.622;1.476;2023-04-06T04:12:14;100341.25;;;5.00;75.60
15646;BME280;7922;43.622;1.476;2023-04-06T04:14:39;100383.84;;;5.23;75.30
15646;BME280;7922;43.622;1.476;2023-04-06T04:17:04;100205.03;;;4.20;75.29
15646;BME280;7922;43.622;1.476;2023-04-06T04:19:30;100234.47;;;4.43;75.34
15646;BME280;7922;43.622;1.476;2023-04-06T04:21:55;100232.75;;;4.39;75.28
15646;BME280;7922;43.622;1.476;2023-04-06T04:24:20;100283.84;;;4.75;75.51
15646;BME280;7922;43.622;1.476;2023-04-06T04:26:46;100197.19;;;4.20;75.27
15646;BME280;7922;43.622;1.476;2023-04-06T04:29:11;100411.47;;;5.49;75.68
15646;BME280;7922;43.622;1.476;2023-04-06T04:31:36;100313.47;;;4.85;75.67
15646;BME280;7922;43.622;1.476;2023-04-06T04:34:02;100296.97;;;4.77;75.64
15646;BME280;7922;43.622;1.476;2023-04-06T04:36:27;100362.88;;;5.19;74.93
15646;BME280;7922;43.622;1.476;2023-04-06T04:38:52;100166.75;;;4.06;75.23
15646;BME280;7922;43.622;1.476;2023-04-06T04:41:18;100178.94;;;4.12;75.59
15646;BME280;7922;43.622;1.476;2023-04-06T04:43:43;100310.72;;;4.93;75.19
15646;BME280;7922;43.622;1.476;2023-04-06T04:46:09;100350.69;;;5.15;75.36
15646;BME280;7922;43.622;1.476;2023-04-06T04:48:34;100199.69;;;4.27;74.85
15646;BME280;7922;43.622;1.476;2023-04-06T04:51:00;100379.28;;;5.35;75.38
15646;BME280;7922;43.622;1.476;2023-04-06T04:53:25;100328.88;;;5.08;75.41
15646;BME280;7922;43.622;1.476;2023-04-06T04:55:50;100296.91;;;4.83;75.55
15646;BME280;7922;43.622;1.476;2023-04-06T04:58:16;100243.09;;;4.50;75.50
15646;BME280;7922;43.622;1.476;2023-04-06T05:00:44;100359.50;;;5.11;76.15
15646;BME280;7922;43.622;1.476;2023-04-06T05:03:14;100416.69;;;5.52;75.58
15646;BME280;7922;43.622;1.476;2023-04-06T05:05:41;100345.50;;;5.10;75.54
15646;BME280;7922;43.622;1.476;2023-04-06T05:08:06;100341.25;;;5.01;75.64
15646;BME280;7922;43.622;1.476;2023-04-06T05:10:31;100362.91;;;5.17;75.74
15646;BME280;7922;43.622;1.476;2023-04-06T05:12:57;100355.97;;;5.12;75.64
15646;BME280;7922;43.622;1.476;2023-04-06T05:15:22;100349.00;;;5.12;75.64
15646;BME280;7922;43.622;1.476;2023-04-06T05:17:48;100422.84;;;5.48;76.01
15646;BME280;7922;43.622;1.476;2023-04-06T05:20:13;100364.88;;;5.00;75.82
15646;BME280;7922;43.622;1.476;2023-04-06T05:22:38;100334.31;;;4.96;75.88
15646;BME280;7922;43.622;1.476;2023-04-06T05:25:04;100372.66;;;5.07;76.24
15646;BME280;7922;43.622;1.476;2023-04-06T05:27:29;100336.09;;;4.95;76.12
15646;BME280;7922;43.622;1.476;2023-04-06T05:29:55;100229.28;;;4.35;75.78
15646;BME280;7922;43.622;1.476;2023-04-06T05:32:20;100368.16;;;5.17;76.25
15646;BME280;7922;43.622;1.476;2023-04-06T05:34:45;100226.72;;;4.34;75.73
15646;BME280;7922;43.622;1.476;2023-04-06T05:37:10;100281.38;;;4.65;76.77
15646;BME280;7922;43.622;1.476;2023-04-06T05:39:36;100260.56;;;4.54;77.02
15646;BME280;7922;43.622;1.476;2023-04-06T05:42:04;100185.91;;;4.13;77.28
15646;BME280;7922;43.622;1.476;2023-04-06T05:44:29;100301.31;;;4.79;76.59
15646;BME280;7922;43.622;1.476;2023-04-06T05:46:54;100405.41;;;5.44;76.47
15646;BME280;7922;43.622;1.476;2023-04-06T05:49:20;100374.16;;;5.27;76.16
15646;BME280;7922;43.622;1.476;2023-04-06T05:51:45;100394.94;;;5.42;76.05
15646;BME280;7922;43.622;1.476;2023-04-06T05:54:10;100283.66;;;4.91;76.11
15646;BME280;7922;43.622;1.476;2023-04-06T05:56:35;100260.91;;;4.90;75.92
15646;BME280;7922;43.622;1.476;2023-04-06T05:59:01;100440.56;;;5.95;76.11
15646;BME280;7922;43.622;1.476;2023-04-06T06:01:26;100471.88;;;6.11;76.80
15646;BME280;7922;43.622;1.476;2023-04-06T06:03:51;100386.59;;;5.70;76.17
15646;BME280;7922;43.622;1.476;2023-04-06T06:06:17;100465.69;;;6.13;75.52
15646;BME280;7922;43.622;1.476;2023-04-06T06:08:42;100301.66;;;5.17;75.40
15646;BME280;7922;43.622;1.476;2023-04-06T06:11:07;100419.75;;;5.80;75.96
15646;BME280;7922;43.622;1.476;2023-04-06T06:13:33;100436.19;;;5.96;75.07
15646;BME280;7922;43.622;1.476;2023-04-06T06:15:58;100258.19;;;4.96;74.74
15646;BME280;7922;43.622;1.476;2023-04-06T06:18:23;100428.22;;;5.99;73.81
15646;BME280;7922;43.622;1.476;2023-04-06T06:20:48;100388.25;;;5.78;74.04
15646;BME280;7922;43.622;1.476;2023-04-06T06:23:14;100465.47;;;6.29;73.67
15646;BME280;7922;43.622;1.476;2023-04-06T06:25:39;100307.25;;;5.49;73.91
15646;BME280;7922;43.622;1.476;2023-04-06T06:28:04;100273.25;;;5.40;74.24
15646;BME280;7922;43.622;1.476;2023-04-06T06:30:30;100350.44;;;5.84;72.69
15646;BME280;7922;43.622;1.476;2023-04-06T06:32:55;100320.81;;;5.76;73.45
15646;BME280;7922;43.622;1.476;2023-04-06T06:35:20;100417.06;;;6.37;73.54
15646;BME280;7922;43.622;1.476;2023-04-06T06:37:46;100284.88;;;5.76;73.35
15646;BME280;7922;43.622;1.476;2023-04-06T06:40:11;100456.38;;;6.91;72.29
15646;BME280;7922;43.622;1.476;2023-04-06T06:42:36;100517.91;;;7.32;71.84
15646;BME280;7922;43.622;1.476;2023-04-06T06:45:02;100348.50;;;6.45;71.17
15646;BME280;7922;43.622;1.476;2023-04-06T06:47:27;100380.34;;;6.76;72.34
15646;BME280;7922;43.622;1.476;2023-04-06T06:49:52;100295.22;;;6.34;72.00
15646;BME280;7922;43.622;1.476;2023-04-06T06:52:18;100521.66;;;7.62;72.65
15646;BME280;7922;43.622;1.476;2023-04-06T06:54:43;100415.53;;;7.14;71.91
15646;BME280;7922;43.622;1.476;2023-04-06T06:57:09;100404.19;;;7.10;72.14
15646;BME280;7922;43.622;1.476;2023-04-06T06:59:34;100517.41;;;7.95;72.05
15646;BME280;7922;43.622;1.476;2023-04-06T07:01:59;100441.63;;;7.66;70.71
15646;BME280;7922;43.622;1.476;2023-04-06T07:04:24;100465.72;;;7.88;70.98
15646;BME280;7922;43.622;1.476;2023-04-06T07:06:50;100330.38;;;7.13;70.01
15646;BME280;7922;43.622;1.476;2023-04-06T07:09:15;100479.19;;;8.12;69.47
15646;BME280;7922;43.622;1.476;2023-04-06T07:11:40;100455.47;;;8.12;69.34
15646;BME280;7922;43.622;1.476;2023-04-06T07:14:06;100412.97;;;7.88;68.80
15646;BME280;7922;43.622;1.476;2023-04-06T07:16:31;100398.00;;;7.89;68.83
15646;BME280;7922;43.622;1.476;2023-04-06T07:18:56;100521.59;;;8.41;68.17
15646;BME280;7922;43.622;1.476;2023-04-06T07:21:22;100507.63;;;8.38;68.17
15646;BME280;7922;43.622;1.476;2023-04-06T07:23:47;100458.03;;;8.15;68.21
15646;BME280;7922;43.622;1.476;2023-04-06T07:26:12;100379.00;;;7.75;68.28
15646;BME280;7922;43.622;1.476;2023-04-06T07:28:38;100468.88;;;8.38;68.03
15646;BME280;7922;43.622;1.476;2023-04-06T07:31:03;100371.28;;;8.03;66.95
15646;BME280;7922;43.622;1.476;2023-04-06T07:33:28;100474.97;;;8.75;65.67
15646;BME280;7922;43.622;1.476;2023-04-06T07:35:53;100498.25;;;8.93;65.42
15646;BME280;7922;43.622;1.476;2023-04-06T07:38:19;100399.84;;;8.54;65.14
15646;BME280;7922;43.622;1.476;2023-04-06T07:40:44;100561.09;;;9.77;64.66
15646;BME280;7922;43.622;1.476;2023-04-06T07:43:09;100370.75;;;8.86;64.01
15646;BME280;7922;43.622;1.476;2023-04-06T07:45:35;100440.25;;;9.49;63.12
15646;BME280;7922;43.622;1.476;2023-04-06T07:48:00;100456.78;;;9.84;62.88
15646;BME280;7922;43.622;1.476;2023-04-06T07:50:25;100463.31;;;9.72;61.38
15646;BME280;7922;43.622;1.476;2023-04-06T07:52:51;100470.41;;;9.72;61.54
15646;BME280;7922;43.622;1.476;2023-04-06T07:55:16;100515.34;;;10.29;61.43
15646;BME280;7922;43.622;1.476;2023-04-06T07:57:41;100405.97;;;10.01;61.14
15646;BME280;7922;43.622;1.476;2023-04-06T08:00:07;100532.56;;;10.69;60.55
15646;BME280;7922;43.622;1.476;2023-04-06T08:02:33;100557.47;;;10.64;57.13
15646;BME280;7922;43.622;1.476;2023-04-06T08:04:58;100479.34;;;9.96;57.25
15646;BME280;7922;43.622;1.476;2023-04-06T08:07:23;100365.84;;;9.60;57.56
15646;BME280;7922;43.622;1.476;2023-04-06T08:09:48;100480.53;;;10.67;56.38
15646;BME280;7922;43.622;1.476;2023-04-06T08:12:14;100511.56;;;10.90;55.75
15646;BME280;7922;43.622;1.476;2023-04-06T08:14:39;100508.13;;;11.11;56.17
15646;BME280;7922;43.622;1.476;2023-04-06T08:17:05;100495.56;;;11.16;55.62
15646;BME280;7922;43.622;1.476;2023-04-06T08:19:30;100563.53;;;11.44;55.12
15646;BME280;7922;43.622;1.476;2023-04-06T08:21:55;100468.38;;;10.86;55.09
15646;BME280;7922;43.622;1.476;2023-04-06T08:24:21;100535.41;;;11.38;54.65
15646;BME280;7922;43.622;1.476;2023-04-06T08:26:46;100405.16;;;10.75;54.13
15646;BME280;7922;43.622;1.476;2023-04-06T08:29:11;100402.28;;;10.81;52.50
15646;BME280;7922;43.622;1.476;2023-04-06T08:31:37;100434.44;;;10.96;53.65
15646;BME280;7922;43.622;1.476;2023-04-06T08:34:05;100384.03;;;10.97;53.06
15646;BME280;7922;43.622;1.476;2023-04-06T08:36:31;100535.97;;;11.95;52.68
15646;BME280;7922;43.622;1.476;2023-04-06T08:38:56;100589.44;;;12.29;51.86
15646;BME280;7922;43.622;1.476;2023-04-06T08:41:22;100546.50;;;11.96;52.86
15646;BME280;7922;43.622;1.476;2023-04-06T08:43:50;100405.34;;;11.18;51.76
15646;BME280;7922;43.622;1.476;2023-04-06T08:46:18;100542.47;;;11.86;52.43
15646;BME280;7922;43.622;1.476;2023-04-06T08:48:45;100439.00;;;11.39;52.59
15646;BME280;7922;43.622;1.476;2023-04-06T08:51:10;100530.50;;;11.98;51.88
15646;BME280;7922;43.622;1.476;2023-04-06T08:53:36;100435.28;;;11.43;51.41
15646;BME280;7922;43.622;1.476;2023-04-06T08:56:03;100533.13;;;11.99;51.43
15646;BME280;7922;43.622;1.476;2023-04-06T08:58:35;100573.91;;;12.42;51.95
15646;BME280;7922;43.622;1.476;2023-04-06T09:01:06;100450.81;;;11.54;51.68
15646;BME280;7922;43.622;1.476;2023-04-06T09:03:34;100542.69;;;12.03;51.85
15646;BME280;7922;43.622;1.476;2023-04-06T09:06:01;100581.88;;;12.42;51.17
15646;BME280;7922;43.622;1.476;2023-04-06T09:08:26;100578.03;;;12.06;51.33
15646;BME280;7922;43.622;1.476;2023-04-06T09:10:52;100438.94;;;11.41;51.49
15646;BME280;7922;43.622;1.476;2023-04-06T09:13:17;100609.72;;;12.32;52.20
15646;BME280;7922;43.622;1.476;2023-04-06T09:15:43;100614.66;;;12.63;52.14
15646;BME280;7922;43.622;1.476;2023-04-06T09:18:08;100610.34;;;12.61;50.63
15646;BME280;7922;43.622;1.476;2023-04-06T09:20:33;100534.59;;;12.28;50.61
15646;BME280;7922;43.622;1.476;2023-04-06T09:22:59;100399.06;;;12.30;48.91
15646;BME280;7922;43.622;1.476;2023-04-06T09:25:25;100566.69;;;13.68;48.54
15646;BME280;7922;43.622;1.476;2023-04-06T09:28:02;100543.50;;;13.52;48.04
15646;BME280;7922;43.622;1.476;2023-04-06T09:30:28;100498.31;;;12.49;47.72
15646;BME280;7922;43.622;1.476;2023-04-06T09:32:55;100584.88;;;12.97;47.66
15646;BME280;7922;43.622;1.476;2023-04-06T09:35:22;100561.53;;;13.65;47.16
15646;BME280;7922;43.622;1.476;2023-04-06T09:37:49;100600.66;;;14.01;45.64
15646;BME280;7922;43.622;1.476;2023-04-06T09:40:15;100612.84;;;14.26;45.15
15646;BME280;7922;43.622;1.476;2023-04-06T09:42:41;100468.53;;;13.61;44.58
15646;BME280;7922;43.622;1.476;2023-04-06T09:45:07;100565.63;;;13.91;43.87
15646;BME280;7922;43.622;1.476;2023-04-06T09:47:33;100441.34;;;12.96;44.71
15646;BME280;7922;43.622;1.476;2023-04-06T09:50:02;100598.75;;;14.24;44.67
15646;BME280;7922;43.622;1.476;2023-04-06T09:52:33;100507.66;;;14.52;44.24
15646;BME280;7922;43.622;1.476;2023-04-06T09:55:03;100540.84;;;14.63;43.23
15646;BME280;7922;43.622;1.476;2023-04-06T09:57:37;100443.59;;;13.63;43.31
15646;BME280;7922;43.622;1.476;2023-04-06T10:00:09;100439.56;;;13.55;43.71
15646;BME280;7922;43.622;1.476;2023-04-06T10:05:22;100601.31;;;14.44;42.79
15646;BME280;7922;43.622;1.476;2023-04-06T10:07:54;100548.34;;;14.00;43.65
15646;BME280;7922;43.622;1.476;2023-04-06T10:10:21;100606.13;;;14.55;43.72
15646;BME280;7922;43.622;1.476;2023-04-06T10:12:47;100508.09;;;13.49;43.49
15646;BME280;7922;43.622;1.476;2023-04-06T10:15:13;100599.09;;;13.78;44.36
15646;BME280;7922;43.622;1.476;2023-04-06T10:17:38;100546.16;;;13.11;44.85
15646;BME280;7922;43.622;1.476;2023-04-06T10:20:09;100484.38;;;12.22;46.69
15646;BME280;7922;43.622;1.476;2023-04-06T10:22:40;100634.91;;;12.88;46.66
15646;BME280;7922;43.622;1.476;2023-04-06T10:25:08;100557.47;;;12.33;46.70
15646;BME280;7922;43.622;1.476;2023-04-06T10:27:33;100553.69;;;12.81;46.17
15646;BME280;7922;43.622;1.476;2023-04-06T10:30:06;100549.94;;;13.27;46.18
15646;BME280;7922;43.622;1.476;2023-04-06T10:32:40;100557.56;;;13.35;45.68
15646;BME280;7922;43.622;1.476;2023-04-06T10:35:11;100603.53;;;13.38;44.53
15646;BME280;7922;43.622;1.476;2023-04-06T10:38:01;100519.06;;;13.02;44.60
15646;BME280;7922;43.622;1.476;2023-04-06T10:40:27;100590.22;;;13.59;43.62
15646;BME280;7922;43.622;1.476;2023-04-06T10:42:55;100538.91;;;13.14;42.08
15646;BME280;7922;43.622;1.476;2023-04-06T10:45:31;100559.25;;;13.37;41.69
15646;BME280;7922;43.622;1.476;2023-04-06T10:47:57;100572.31;;;13.81;42.95
15646;BME280;7922;43.622;1.476;2023-04-06T10:50:22;100535.19;;;13.78;42.26
15646;BME280;7922;43.622;1.476;2023-04-06T10:52:59;100594.28;;;14.05;41.61
15646;BME280;7922;43.622;1.476;2023-04-06T10:55:26;100530.44;;;13.66;42.90
15646;BME280;7922;43.622;1.476;2023-04-06T10:57:51;100453.66;;;13.38;41.34
15646;BME280;7922;43.622;1.476;2023-04-06T11:00:17;100518.25;;;13.60;41.33
15646;BME280;7922;43.622;1.476;2023-04-06T11:02:43;100584.97;;;14.33;41.99
15646;BME280;7922;43.622;1.476;2023-04-06T11:05:11;100578.72;;;14.70;41.77
15646;BME280;7922;43.622;1.476;2023-04-06T11:07:37;100529.72;;;14.36;41.76
15646;BME280;7922;43.622;1.476;2023-04-06T11:10:02;100516.38;;;14.36;41.87
15646;BME280;7922;43.622;1.476;2023-04-06T11:12:28;100362.59;;;13.31;41.55
15646;BME280;7922;43.622;1.476;2023-04-06T11:14:57;100424.13;;;13.61;41.64
15646;BME280;7922;43.622;1.476;2023-04-06T11:17:30;100574.81;;;14.60;41.25
15646;BME280;7922;43.622;1.476;2023-04-06T11:19:56;100465.34;;;14.09;41.21
15646;BME280;7922;43.622;1.476;2023-04-06T11:22:21;100546.97;;;14.47;38.70
15646;BME280;7922;43.622;1.476;2023-04-06T11:24:47;100372.66;;;13.62;39.15
15646;BME280;7922;43.622;1.476;2023-04-06T11:27:12;100570.72;;;14.70;39.43
15646;BME280;7922;43.622;1.476;2023-04-06T11:29:38;100409.59;;;13.87;36.48
15646;BME280;7922;43.622;1.476;2023-04-06T11:32:05;100320.66;;;13.55;38.03
15646;BME280;7922;43.622;1.476;2023-04-06T11:34:33;100472.69;;;14.75;38.67
15646;BME280;7922;43.622;1.476;2023-04-06T11:37:00;100558.66;;;14.98;37.77
15646;BME280;7922;43.622;1.476;2023-04-06T11:39:27;100411.00;;;13.94;37.46
15646;BME280;7922;43.622;1.476;2023-04-06T11:42:02;100486.19;;;14.72;37.84
15646;BME280;7922;43.622;1.476;2023-04-06T11:44:37;100540.13;;;15.12;36.71
15646;BME280;7922;43.622;1.476;2023-04-06T11:47:05;100515.00;;;14.99;37.99
15646;BME280;7922;43.622;1.476;2023-04-06T11:49:32;100456.53;;;14.61;36.99
15646;BME280;7922;43.622;1.476;2023-04-06T11:51:58;100434.66;;;14.72;35.89
15646;BME280;7922;43.622;1.476;2023-04-06T11:54:34;100536.28;;;15.51;35.31
15646;BME280;7922;43.622;1.476;2023-04-06T11:57:00;100483.06;;;15.14;34.82
15646;BME280;7922;43.622;1.476;2023-04-06T11:59:25;100526.94;;;15.42;33.52
15646;BME280;7922;43.622;1.476;2023-04-06T12:01:50;100500.19;;;15.44;33.87
15646;BME280;7922;43.622;1.476;2023-04-06T12:04:15;100495.94;;;15.73;35.14
15646;BME280;7922;43.622;1.476;2023-04-06T12:06:41;100357.34;;;14.87;34.08
15646;BME280;7922;43.622;1.476;2023-04-06T12:09:06;100473.22;;;15.32;31.88
15646;BME280;7922;43.622;1.476;2023-04-06T12:11:31;100496.88;;;15.38;31.44
15646;BME280;7922;43.622;1.476;2023-04-06T12:13:57;100498.78;;;15.36;32.28
15646;BME280;7922;43.622;1.476;2023-04-06T12:16:22;100345.94;;;14.68;32.00
15646;BME280;7922;43.622;1.476;2023-04-06T12:18:47;100501.28;;;15.39;31.65
15646;BME280;7922;43.622;1.476;2023-04-06T12:21:13;100467.84;;;15.66;32.70
15646;BME280;7922;43.622;1.476;2023-04-06T12:23:38;100489.75;;;15.88;32.64
15646;BME280;7922;43.622;1.476;2023-04-06T12:26:03;100459.44;;;15.56;32.67
15646;BME280;7922;43.622;1.476;2023-04-06T12:28:29;100489.94;;;15.52;31.86
15646;BME280;7922;43.622;1.476;2023-04-06T12:30:55;100470.81;;;15.59;31.80
15646;BME280;7922;43.622;1.476;2023-04-06T12:33:20;100474.59;;;15.73;32.03
15646;BME280;7922;43.622;1.476;2023-04-06T12:35:45;100477.94;;;15.92;31.63
15646;BME280;7922;43.622;1.476;2023-04-06T12:38:11;100323.47;;;14.89;31.35
15646;BME280;7922;43.622;1.476;2023-04-06T12:40:39;100495.78;;;15.92;32.25
15646;BME280;7922;43.622;1.476;2023-04-06T12:43:05;100451.97;;;15.62;34.05
15646;BME280;7922;43.622;1.476;2023-04-06T12:45:31;100473.34;;;15.78;33.09
15646;BME280;7922;43.622;1.476;2023-04-06T12:47:56;100349.75;;;15.29;33.87
15646;BME280;7922;43.622;1.476;2023-04-06T12:50:22;100482.28;;;16.25;32.42
15646;BME280;7922;43.622;1.476;2023-04-06T12:52:47;100439.63;;;16.23;32.16
15646;BME280;7922;43.622;1.476;2023-04-06T12:55:12;100408.84;;;15.70;31.64
15646;BME280;7922;43.622;1.476;2023-04-06T12:57:38;100365.75;;;15.45;32.47
15646;BME280;7922;43.622;1.476;2023-04-06T13:00:04;100330.59;;;15.52;33.61
15646;BME280;7922;43.622;1.476;2023-04-06T13:02:30;100501.25;;;16.66;33.39